createdAt,value
2023-04-14T00:00:06.341Z,100240.44
2023-04-14T00:02:36.242Z,100239.41
2023-04-14T00:05:04.200Z,100241.72
2023-04-14T00:07:30.684Z,100233.91
2023-04-14T00:09:57.122Z,100244.19
2023-04-14T00:12:23.935Z,100250.06
2023-04-14T00:14:50.366Z,100246.72
2023-04-14T00:17:16.922Z,100245.88
2023-04-14T00:19:43.463Z,100249.00
2023-04-14T00:22:09.862Z,100252.56
2023-04-14T00:24:43.422Z,100258.03
2023-04-14T00:27:10.867Z,100268.31
2023-04-14T00:29:40.559Z,100268.50
2023-04-14T00:32:07.228Z,100267.22
2023-04-14T00:34:34.249Z,100262.56
2023-04-14T00:37:00.673Z,100268.00
2023-04-14T00:39:27.096Z,100260.59
2023-04-14T00:41:53.486Z,100262.41
2023-04-14T00:44:20.158Z,100266.81
2023-04-14T00:46:47.391Z,100268.22
2023-04-14T00:49:15.873Z,100271.53
2023-04-14T00:51:44.597Z,100270.44
2023-04-14T00:54:11.482Z,100270.63
2023-04-14T00:56:38.884Z,100268.50
2023-04-14T00:59:06.993Z,100281.69
2023-04-14T01:01:37.233Z,100290.28
2023-04-14T01:04:04.400Z,100299.06
2023-04-14T01:06:30.946Z,100299.66
2023-04-14T01:08:58.146Z,100302.75
2023-04-14T01:11:31.258Z,100298.94
2023-04-14T01:14:17.311Z,100301.22
2023-04-14T01:16:45.589Z,100302.00
2023-04-14T01:19:33.398Z,100300.88
2023-04-14T01:22:05.699Z,100299.78
2023-04-14T01:24:47.386Z,100298.28
2023-04-14T01:27:40.613Z,100301.59
2023-04-14T01:30:31.416Z,100302.34
2023-04-14T01:33:03.491Z,100301.03
2023-04-14T01:35:44.753Z,100297.00
2023-04-14T01:38:23.787Z,100303.53
2023-04-14T01:40:52.825Z,100299.28
2023-04-14T01:43:24.954Z,100302.38
2023-04-14T01:45:52.962Z,100300.91
2023-04-14T01:48:20.123Z,100302.59
2023-04-14T01:50:47.936Z,100300.69
2023-04-14T01:53:17.447Z,100297.97
2023-04-14T01:55:45.737Z,100305.03
2023-04-14T01:58:14.459Z,100299.97
2023-04-14T02:00:42.720Z,100302.03
2023-04-14T02:03:10.521Z,100296.56
2023-04-14T02:05:39.139Z,100299.31
2023-04-14T02:08:11.006Z,100297.63
2023-04-14T02:10:41.602Z,100293.59
2023-04-14T02:13:10.539Z,100301.31
2023-04-14T02:15:37.592Z,100300.66
2023-04-14T02:18:07.938Z,100305.25
2023-04-14T02:20:42.542Z,100307.13
2023-04-14T02:23:09.425Z,100308.53
2023-04-14T02:25:41.033Z,100316.94
2023-04-14T02:28:14.639Z,100311.56
2023-04-14T02:30:44.486Z,100316.72
2023-04-14T02:33:17.180Z,100315.44
2023-04-14T02:35:48.623Z,100310.53
2023-04-14T02:38:36.387Z,100311.56
2023-04-14T02:41:08.525Z,100318.91
2023-04-14T02:43:43.103Z,100317.88
2023-04-14T02:46:11.767Z,100318.91
2023-04-14T02:48:39.498Z,100315.53
2023-04-14T02:51:08.334Z,100317.97
2023-04-14T02:53:35.227Z,100317.66
2023-04-14T02:56:01.908Z,100318.03
2023-04-14T02:58:29.962Z,100323.03
2023-04-14T03:00:57.853Z,100330.16
2023-04-14T03:03:25.538Z,100335.63
2023-04-14T03:05:52.106Z,100338.16
2023-04-14T03:08:19.968Z,100341.91
2023-04-14T03:10:48.461Z,100338.53
2023-04-14T03:13:17.773Z,100336.72
2023-04-14T03:15:44.916Z,100334.75
2023-04-14T03:18:12.676Z,100337.00
2023-04-14T03:20:41.444Z,100337.75
2023-04-14T03:23:11.848Z,100332.66
2023-04-14T03:25:40.376Z,100333.22
2023-04-14T03:28:12.154Z,100330.03
2023-04-14T03:30:43.680Z,100339.38
2023-04-14T03:33:14.547Z,100334.31
2023-04-14T03:35:41.903Z,100339.97
2023-04-14T03:38:09.098Z,100339.97
2023-04-14T03:40:38.580Z,100342.69
2023-04-14T03:43:09.787Z,100340.78
2023-04-14T03:45:39.017Z,100342.84
2023-04-14T03:48:10.653Z,100345.41
2023-04-14T03:50:41.492Z,100350.84
2023-04-14T03:53:10.581Z,100348.47
2023-04-14T03:55:38.625Z,100353.28
2023-04-14T03:58:08.684Z,100359.09
2023-04-14T04:00:36.344Z,100348.91
2023-04-14T04:03:03.912Z,100358.50
2023-04-14T04:05:31.094Z,100352.53
2023-04-14T04:08:03.023Z,100353.75
2023-04-14T04:10:34.155Z,100350.75
2023-04-14T04:13:09.041Z,100360.09
2023-04-14T04:15:37.783Z,100357.91
2023-04-14T04:18:07.072Z,100358.59
2023-04-14T04:20:36.046Z,100354.88
2023-04-14T04:23:04.090Z,100359.09
2023-04-14T04:25:33.015Z,100354.50
2023-04-14T04:28:01.035Z,100361.28
2023-04-14T04:30:29.096Z,100354.13
2023-04-14T04:32:55.701Z,100359.56
2023-04-14T04:35:24.613Z,100361.28
2023-04-14T04:37:51.709Z,100364.00
2023-04-14T04:40:18.214Z,100372.53
2023-04-14T04:42:45.154Z,100369.13
2023-04-14T04:45:12.298Z,100372.00
2023-04-14T04:47:38.843Z,100379.53
2023-04-14T04:50:05.660Z,100373.22
2023-04-14T04:52:32.033Z,100381.38
2023-04-14T04:54:58.432Z,100377.81
2023-04-14T04:57:24.790Z,100381.38
2023-04-14T04:59:51.295Z,100380.72
2023-04-14T05:02:17.830Z,100383.63
2023-04-14T05:04:44.494Z,100393.66
2023-04-14T05:07:11.035Z,100387.84
2023-04-14T05:09:37.489Z,100394.13
2023-04-14T05:12:04.085Z,100400.44
2023-04-14T05:14:30.692Z,100397.72
2023-04-14T05:16:57.124Z,100404.84
2023-04-14T05:19:23.644Z,100402.78
2023-04-14T05:21:50.356Z,100388.84
2023-04-14T05:24:16.867Z,100395.59
2023-04-14T05:29:12.627Z,100381.94
2023-04-14T05:31:39.076Z,100389.56
2023-04-14T05:34:05.592Z,100393.44
2023-04-14T05:36:32.222Z,100390.16
2023-04-14T05:38:58.850Z,100390.63
2023-04-14T05:41:25.292Z,100391.97
2023-04-14T05:43:51.662Z,100389.06
2023-04-14T05:46:18.129Z,100389.56
2023-04-14T05:48:44.599Z,100390.88
2023-04-14T05:51:11.292Z,100401.41
2023-04-14T05:53:37.766Z,100398.31
2023-04-14T05:56:04.450Z,100391.84
2023-04-14T05:58:30.854Z,100396.28
2023-04-14T06:00:57.254Z,100389.78
2023-04-14T06:03:23.952Z,100383.31
2023-04-14T06:05:50.854Z,100386.50
2023-04-14T06:08:18.910Z,100381.53
2023-04-14T06:10:45.465Z,100383.22
2023-04-14T06:13:12.160Z,100383.72
2023-04-14T06:15:38.656Z,100382.47
2023-04-14T06:18:05.157Z,100391.97
2023-04-14T06:20:32.579Z,100389.19
2023-04-14T06:23:00.772Z,100385.53
2023-04-14T06:25:27.325Z,100375.41
2023-04-14T06:27:53.766Z,100378.47
2023-04-14T06:30:20.328Z,100374.47
2023-04-14T06:32:48.596Z,100378.38
2023-04-14T06:35:29.766Z,100373.50
2023-04-14T06:37:59.136Z,100361.91
2023-04-14T06:40:25.743Z,100363.28
2023-04-14T06:42:52.270Z,100360.06
2023-04-14T06:45:18.907Z,100363.13
2023-04-14T06:47:45.422Z,100351.91
2023-04-14T06:50:12.571Z,100354.97
2023-04-14T06:52:39.028Z,100360.75
2023-04-14T06:55:05.774Z,100351.19
2023-04-14T06:57:32.389Z,100354.28
2023-04-14T06:59:58.853Z,100343.66
2023-04-14T07:02:25.508Z,100346.03
2023-04-14T07:04:52.123Z,100336.47
2023-04-14T07:07:18.600Z,100338.84
2023-04-14T07:09:45.094Z,100331.97
2023-04-14T07:12:15.938Z,100323.38
2023-04-14T07:14:42.835Z,100320.31
2023-04-14T07:17:09.590Z,100322.66
2023-04-14T07:19:36.138Z,100323.53
2023-04-14T07:22:02.544Z,100320.63
2023-04-14T07:24:29.048Z,100317.72
2023-04-14T07:26:55.509Z,100318.16
2023-04-14T07:29:21.918Z,100307.69
2023-04-14T07:31:48.454Z,100313.63
2023-04-14T07:34:15.092Z,100315.75
2023-04-14T07:36:41.568Z,100310.72
2023-04-14T07:39:07.987Z,100308.41
2023-04-14T07:41:34.471Z,100307.16
2023-04-14T07:44:01.066Z,100306.75
2023-04-14T07:46:27.852Z,100307.38
2023-04-14T07:48:54.293Z,100297.69
2023-04-14T07:51:20.866Z,100298.31
2023-04-14T07:53:47.357Z,100301.47
2023-04-14T07:56:14.782Z,100299.81
2023-04-14T07:58:41.257Z,100283.94
2023-04-14T08:01:08.048Z,100296.41
2023-04-14T08:03:37.288Z,100295.94
2023-04-14T08:06:07.583Z,100300.16
2023-04-14T08:08:35.344Z,100298.44
2023-04-14T08:11:01.838Z,100292.47
2023-04-14T08:13:28.294Z,100295.41
2023-04-14T08:15:54.835Z,100295.00
2023-04-14T08:18:21.578Z,100286.66
2023-04-14T08:20:48.008Z,100292.75
2023-04-14T08:23:14.497Z,100286.75
2023-04-14T08:25:42.224Z,100287.97
2023-04-14T08:28:08.667Z,100280.78
2023-04-14T08:30:35.243Z,100282.16
2023-04-14T08:33:01.855Z,100277.59
2023-04-14T08:35:39.668Z,100266.13
2023-04-14T08:38:07.747Z,100279.09
2023-04-14T08:40:39.590Z,100277.72
2023-04-14T08:43:06.549Z,100263.44
2023-04-14T08:45:33.695Z,100267.34
2023-04-14T08:48:02.594Z,100264.09
2023-04-14T08:50:36.809Z,100266.56
2023-04-14T08:53:05.270Z,100260.72
2023-04-14T08:55:38.915Z,100253.09
2023-04-14T08:58:07.392Z,100250.78
2023-04-14T09:00:35.193Z,100249.38
2023-04-14T09:03:02.203Z,100243.34
2023-04-14T09:05:29.590Z,100252.59
2023-04-14T09:07:56.070Z,100244.84
2023-04-14T09:10:23.209Z,100241.84
2023-04-14T09:12:50.265Z,100236.69
2023-04-14T09:15:16.985Z,100241.16
2023-04-14T09:17:43.957Z,100236.84
2023-04-14T09:20:36.196Z,100234.94
2023-04-14T09:22:58.470Z,100236.88
2023-04-14T09:25:25.330Z,100227.97
2023-04-14T09:27:52.091Z,100230.84
2023-04-14T09:30:19.046Z,100220.78
2023-04-14T09:32:45.575Z,100221.13
2023-04-14T09:35:16.209Z,100222.44
2023-04-14T09:37:47.567Z,100221.25
2023-04-14T09:40:30.981Z,100220.19
2023-04-14T09:42:57.795Z,100215.47
2023-04-14T09:45:44.659Z,100226.88
2023-04-14T09:48:15.142Z,100220.84
2023-04-14T09:51:07.287Z,100218.91
2023-04-14T09:53:39.132Z,100206.47
2023-04-14T09:56:11.481Z,100205.75
2023-04-14T09:58:43.599Z,100210.47
2023-04-14T10:01:16.395Z,100205.81
2023-04-14T10:03:48.122Z,100201.91
2023-04-14T10:06:19.906Z,100202.31
2023-04-14T10:08:48.720Z,100191.75
2023-04-14T10:11:32.291Z,100191.78
2023-04-14T10:14:02.685Z,100178.31
2023-04-14T10:16:29.960Z,100169.34
2023-04-14T10:18:59.562Z,100165.38
2023-04-14T10:21:28.215Z,100146.59
2023-04-14T10:23:58.119Z,100156.88
2023-04-14T10:26:25.416Z,100157.66
2023-04-14T10:28:54.075Z,100142.91
2023-04-14T10:31:29.339Z,100143.38
2023-04-14T10:33:55.978Z,100146.69
2023-04-14T10:36:25.108Z,100138.75
2023-04-14T10:38:59.612Z,100129.91
2023-04-14T10:41:26.501Z,100129.34
2023-04-14T10:43:53.068Z,100112.88
2023-04-14T10:46:21.168Z,100109.72
2023-04-14T10:48:49.394Z,100107.88
2023-04-14T10:51:18.026Z,100112.66
2023-04-14T10:53:54.261Z,100101.22
2023-04-14T10:56:22.121Z,100103.53
2023-04-14T10:58:56.276Z,100099.75
2023-04-14T11:01:30.016Z,100090.31
2023-04-14T11:03:58.064Z,100085.34
2023-04-14T11:06:50.587Z,100096.78
2023-04-14T11:09:32.183Z,100092.59
2023-04-14T11:12:24.524Z,100079.78
2023-04-14T11:14:55.872Z,100076.47
2023-04-14T11:17:23.156Z,100088.16
2023-04-14T11:19:54.150Z,100071.47
2023-04-14T11:22:41.344Z,100073.06
2023-04-14T11:25:10.913Z,100065.19
2023-04-14T11:27:37.818Z,100072.88
2023-04-14T11:30:07.081Z,100064.69
2023-04-14T11:32:56.865Z,100064.31
2023-04-14T11:35:25.322Z,100051.66
2023-04-14T11:37:56.272Z,100060.06
2023-04-14T11:40:26.547Z,100056.72
2023-04-14T11:42:55.621Z,100050.47
2023-04-14T11:45:22.217Z,100052.91
2023-04-14T11:48:04.224Z,100055.09
2023-04-14T11:50:33.281Z,100050.63
2023-04-14T11:53:00.767Z,100049.47
2023-04-14T11:55:28.076Z,100046.16
2023-04-14T11:57:57.931Z,100058.44
2023-04-14T12:00:24.795Z,100040.16
2023-04-14T12:02:51.722Z,100042.28
2023-04-14T12:05:30.301Z,100039.19
2023-04-14T12:08:05.025Z,100037.56
2023-04-14T12:10:32.088Z,100034.53
2023-04-14T12:13:02.313Z,100027.00
2023-04-14T12:15:31.337Z,100025.81
2023-04-14T12:17:58.687Z,100018.44
2023-04-14T12:20:27.161Z,100014.00
2023-04-14T12:23:01.762Z,100020.59
2023-04-14T12:25:33.019Z,100012.38
2023-04-14T12:28:02.188Z,100005.66
2023-04-14T12:30:28.644Z,100015.56
2023-04-14T12:32:55.103Z,99998.19
2023-04-14T12:35:24.686Z,100000.53
2023-04-14T12:37:51.669Z,99999.31
2023-04-14T12:40:37.466Z,99999.25
2023-04-14T12:43:03.966Z,99990.34
2023-04-14T12:45:47.382Z,99979.66
2023-04-14T12:48:15.902Z,99970.47
2023-04-14T12:50:43.695Z,99973.31
2023-04-14T12:53:27.580Z,99969.41
2023-04-14T12:56:08.251Z,99965.81
2023-04-14T12:58:36.597Z,99963.44
2023-04-14T13:01:04.230Z,99964.69
2023-04-14T13:03:44.888Z,99959.75
2023-04-14T13:06:13.360Z,99956.09
2023-04-14T13:08:47.027Z,99949.34
2023-04-14T13:11:14.747Z,99949.53
2023-04-14T13:13:41.529Z,99942.41
2023-04-14T13:16:13.906Z,99942.03
2023-04-14T13:18:43.387Z,99933.69
2023-04-14T13:21:10.295Z,99935.72
2023-04-14T13:23:36.947Z,99932.97
2023-04-14T13:26:03.728Z,99941.53
2023-04-14T13:28:30.439Z,99938.75
2023-04-14T13:30:57.800Z,99925.19
2023-04-14T13:33:25.547Z,99930.06
2023-04-14T13:35:53.498Z,99921.44
2023-04-14T13:38:20.137Z,99915.28
2023-04-14T13:40:48.242Z,99902.63
2023-04-14T13:43:18.047Z,99922.28
2023-04-14T13:45:44.710Z,99926.38
2023-04-14T13:48:11.201Z,99916.84
2023-04-14T13:50:37.658Z,99910.78
2023-04-14T13:53:04.175Z,99910.13
2023-04-14T13:55:30.745Z,99916.44
2023-04-14T13:57:57.253Z,99911.28
2023-04-14T14:00:23.780Z,99915.69
2023-04-14T14:02:51.798Z,99912.28
2023-04-14T14:05:18.530Z,99911.47
2023-04-14T14:07:45.042Z,99918.31
2023-04-14T14:10:11.569Z,99915.38
2023-04-14T14:12:38.105Z,99914.28
2023-04-14T14:15:05.544Z,99906.19
2023-04-14T14:17:32.620Z,99908.75
2023-04-14T14:19:59.245Z,99908.66
2023-04-14T14:22:26.176Z,99901.19
2023-04-14T14:25:10.870Z,99887.16
2023-04-14T14:27:44.781Z,99888.28
2023-04-14T14:30:11.655Z,99880.72
2023-04-14T14:32:38.147Z,99877.72
2023-04-14T14:35:04.899Z,99873.09
2023-04-14T14:37:31.320Z,99876.56
2023-04-14T14:39:57.922Z,99885.31
2023-04-14T14:42:24.345Z,99875.84
2023-04-14T14:44:50.737Z,99888.56
2023-04-14T14:47:17.312Z,99881.56
2023-04-14T14:49:56.671Z,99886.28
2023-04-14T14:52:29.360Z,99877.81
2023-04-14T14:54:55.737Z,99878.88
2023-04-14T14:57:22.447Z,99859.59
2023-04-14T14:59:49.168Z,99865.66
2023-04-14T15:02:15.685Z,99863.97
2023-04-14T15:04:42.217Z,99860.09
2023-04-14T15:07:08.712Z,99861.47
2023-04-14T15:09:35.336Z,99866.00
2023-04-14T15:12:01.708Z,99862.63
2023-04-14T15:14:28.101Z,99859.19
2023-04-14T15:16:54.513Z,99859.38
2023-04-14T15:19:21.001Z,99850.56
2023-04-14T15:21:47.411Z,99860.47
2023-04-14T15:24:13.862Z,99846.25
2023-04-14T15:26:40.351Z,99847.69
2023-04-14T15:29:06.960Z,99844.06
2023-04-14T15:31:33.614Z,99840.94
2023-04-14T15:34:00.523Z,99853.06
2023-04-14T15:36:27.423Z,99843.94
2023-04-14T15:38:53.998Z,99845.41
2023-04-14T15:41:20.918Z,99845.09
2023-04-14T15:43:49.510Z,99842.91
2023-04-14T15:46:16.164Z,99839.16
2023-04-14T15:48:42.559Z,99838.44
2023-04-14T15:51:08.926Z,99838.44
2023-04-14T15:53:36.360Z,99841.06
2023-04-14T15:56:03.770Z,99841.97
2023-04-14T15:58:30.237Z,99839.81
2023-04-14T16:00:56.779Z,99845.09
2023-04-14T16:03:23.495Z,99840.81
2023-04-14T16:05:50.050Z,99857.22
2023-04-14T16:08:17.000Z,99857.81
2023-04-14T16:10:43.625Z,99853.03
2023-04-14T16:13:10.097Z,99851.53
2023-04-14T16:15:36.634Z,99866.66
2023-04-14T16:18:04.325Z,99847.97
2023-04-14T16:20:30.868Z,99859.69
2023-04-14T16:22:57.292Z,99857.38
2023-04-14T16:25:23.986Z,99859.16
2023-04-14T16:27:50.809Z,99854.69
2023-04-14T16:30:17.687Z,99852.44
2023-04-14T16:32:44.264Z,99854.59
2023-04-14T16:35:11.835Z,99852.69
2023-04-14T16:37:38.290Z,99848.72
2023-04-14T16:40:06.856Z,99850.28
2023-04-14T16:42:33.985Z,99847.22
2023-04-14T16:45:00.508Z,99844.72
2023-04-14T16:47:27.005Z,99839.00
2023-04-14T16:49:54.032Z,99839.47
2023-04-14T16:52:20.448Z,99848.69
2023-04-14T16:54:46.896Z,99840.75
2023-04-14T16:57:13.661Z,99841.81
2023-04-14T16:59:40.285Z,99841.84
2023-04-14T17:02:08.050Z,99839.38
2023-04-14T17:04:35.066Z,99838.09
2023-04-14T17:07:01.683Z,99837.53
2023-04-14T17:09:28.542Z,99845.13
2023-04-14T17:11:55.073Z,99849.63
2023-04-14T17:14:23.176Z,99848.38
2023-04-14T17:16:49.636Z,99845.03
2023-04-14T17:19:17.002Z,99844.41
2023-04-14T17:21:45.470Z,99848.97
2023-04-14T17:24:12.711Z,99850.06
2023-04-14T17:26:39.089Z,99847.78
2023-04-14T17:29:05.514Z,99848.03
2023-04-14T17:31:32.509Z,99839.50
2023-04-14T17:34:00.103Z,99842.53
2023-04-14T17:36:28.284Z,99848.84
2023-04-14T17:38:54.729Z,99845.88
2023-04-14T17:41:21.263Z,99846.22
2023-04-14T17:43:47.764Z,99849.19
2023-04-14T17:46:14.935Z,99859.38
2023-04-14T17:48:41.478Z,99851.94
2023-04-14T17:51:08.112Z,99852.25
2023-04-14T17:53:34.628Z,99860.03
2023-04-14T17:56:01.382Z,99857.25
2023-04-14T17:58:27.860Z,99864.84
2023-04-14T18:00:54.510Z,99870.66
2023-04-14T18:03:21.288Z,99862.31
2023-04-14T18:05:48.275Z,99871.88
2023-04-14T18:08:16.045Z,99882.53
2023-04-14T18:10:45.229Z,99872.03
2023-04-14T18:13:12.703Z,99867.44
2023-04-14T18:15:41.198Z,99867.75
2023-04-14T18:18:07.811Z,99880.09
2023-04-14T18:20:34.427Z,99883.44
2023-04-14T18:23:02.277Z,99892.03
2023-04-14T18:26:26.406Z,99893.94
2023-04-14T18:28:18.175Z,99904.94
2023-04-14T18:30:52.412Z,99907.06
2023-04-14T18:33:18.858Z,99898.00
2023-04-14T18:35:50.623Z,99911.44
2023-04-14T18:38:18.201Z,99918.47
2023-04-14T18:40:45.446Z,99920.50
2023-04-14T18:43:12.297Z,99924.50
2023-04-14T18:45:38.731Z,99922.06
2023-04-14T18:48:05.729Z,99924.41
2023-04-14T18:50:33.730Z,99929.75
2023-04-14T18:53:00.193Z,99932.69
2023-04-14T18:55:26.627Z,99933.91
2023-04-14T18:58:12.130Z,99932.53
2023-04-14T19:00:39.398Z,99931.00
2023-04-14T19:03:07.029Z,99937.47
2023-04-14T19:05:35.140Z,99936.75
2023-04-14T19:08:02.443Z,99942.56
2023-04-14T19:10:29.522Z,99944.94
2023-04-14T19:12:56.554Z,99943.97
2023-04-14T19:15:23.058Z,99954.81
2023-04-14T19:17:49.636Z,99961.00
2023-04-14T19:20:16.138Z,99967.22
2023-04-14T19:22:42.580Z,99956.56
2023-04-14T19:25:09.448Z,99967.16
2023-04-14T19:27:38.372Z,99966.13
2023-04-14T19:30:05.885Z,99969.28
2023-04-14T19:32:33.969Z,99974.97
2023-04-14T19:35:00.897Z,99975.63
2023-04-14T19:37:28.334Z,99973.25
2023-04-14T19:39:54.791Z,99977.56
2023-04-14T19:42:21.328Z,99985.13
2023-04-14T19:44:47.743Z,99982.03
2023-04-14T19:47:14.184Z,99979.38
2023-04-14T19:49:41.962Z,99985.00
2023-04-14T19:52:09.054Z,99993.41
2023-04-14T19:54:35.649Z,99985.88
2023-04-14T19:57:02.053Z,99997.53
2023-04-14T19:59:31.609Z,99987.09
2023-04-14T20:01:59.367Z,99996.19
2023-04-14T20:04:27.207Z,99987.13
2023-04-14T20:06:55.178Z,99989.88
2023-04-14T20:09:21.627Z,99995.13
2023-04-14T20:11:48.045Z,99992.09
2023-04-14T20:14:16.069Z,99999.63
2023-04-14T20:16:42.909Z,99997.69
2023-04-14T20:19:09.914Z,99996.59
2023-04-14T20:21:36.470Z,100001.34
2023-04-14T20:24:03.777Z,99999.78
2023-04-14T20:26:30.333Z,100004.53
2023-04-14T20:28:56.794Z,100005.47
2023-04-14T20:31:24.428Z,100005.81
2023-04-14T20:33:51.012Z,99998.06
2023-04-14T20:36:17.548Z,100007.25
2023-04-14T20:38:43.960Z,99999.56
2023-04-14T20:41:10.401Z,100001.56
2023-04-14T20:43:37.037Z,100002.72
2023-04-14T20:46:04.164Z,100005.50
2023-04-14T20:48:32.045Z,100010.88
2023-04-14T20:50:59.591Z,100018.94
2023-04-14T20:53:28.400Z,100013.06
2023-04-14T20:55:55.056Z,100021.19
2023-04-14T20:58:21.534Z,100019.13
2023-04-14T21:00:48.011Z,100011.16
2023-04-14T21:03:14.871Z,100013.28
2023-04-14T21:05:41.421Z,100016.72
2023-04-14T21:08:08.414Z,100014.66
2023-04-14T21:10:35.605Z,100023.34
2023-04-14T21:15:30.355Z,100022.59
2023-04-14T21:16:09.367Z,100016.91
2023-04-14T21:18:36.304Z,100021.41
2023-04-14T21:21:04.864Z,100029.69
2023-04-14T21:23:31.472Z,100019.63
2023-04-14T21:25:59.810Z,100022.19
2023-04-14T21:28:26.303Z,100014.84
2023-04-14T21:30:55.871Z,100014.69
2023-04-14T21:33:22.265Z,100020.63
2023-04-14T21:35:49.543Z,100021.06
2023-04-14T21:38:15.940Z,100016.03
2023-04-14T21:40:42.575Z,100023.22
2023-04-14T21:43:09.016Z,100019.09
2023-04-14T21:45:35.445Z,100021.25
2023-04-14T21:48:02.860Z,100029.75
2023-04-14T21:50:29.910Z,100026.19
2023-04-14T21:52:57.539Z,100034.66
2023-04-14T21:55:24.117Z,100031.75
2023-04-14T21:57:51.605Z,100038.72
2023-04-14T22:00:18.791Z,100029.84
2023-04-14T22:02:45.667Z,100032.84
2023-04-14T22:05:12.465Z,100032.00
2023-04-14T22:07:39.597Z,100034.72
2023-04-14T22:10:06.980Z,100032.88
2023-04-14T22:12:35.855Z,100035.84
2023-04-14T22:15:03.827Z,100042.81
2023-04-14T22:17:31.125Z,100039.28
2023-04-14T22:19:57.724Z,100038.47
2023-04-14T22:22:24.407Z,100043.13
2023-04-14T22:24:53.888Z,100042.31
2023-04-14T22:27:20.937Z,100037.06
2023-04-14T22:29:47.838Z,100036.84
2023-04-14T22:32:15.219Z,100044.03
2023-04-14T22:34:41.739Z,100041.94
2023-04-14T22:37:08.233Z,100049.94
2023-04-14T22:39:34.634Z,100050.38
2023-04-14T22:42:01.183Z,100045.31
2023-04-14T22:44:27.616Z,100048.69
2023-04-14T22:46:54.015Z,100054.38
2023-04-14T22:49:20.738Z,100063.00
2023-04-14T22:51:47.197Z,100055.22
2023-04-14T22:54:13.647Z,100061.31
2023-04-14T22:56:40.997Z,100063.22
2023-04-14T22:59:07.406Z,100075.44
2023-04-14T23:01:33.872Z,100066.41
2023-04-14T23:04:00.532Z,100059.84
2023-04-14T23:06:27.096Z,100064.28
2023-04-14T23:08:53.487Z,100064.91
2023-04-14T23:11:20.923Z,100072.69
2023-04-14T23:13:49.018Z,100070.16
2023-04-14T23:16:19.780Z,100069.53
2023-04-14T23:18:51.717Z,100070.16
2023-04-14T23:21:20.529Z,100071.63
2023-04-14T23:23:46.963Z,100074.34
2023-04-14T23:26:13.525Z,100072.22
2023-04-14T23:28:40.261Z,100077.28
2023-04-14T23:31:07.164Z,100079.81
2023-04-14T23:33:33.631Z,100080.19
2023-04-14T23:36:00.058Z,100076.22
2023-04-14T23:38:26.509Z,100076.00
2023-04-14T23:40:58.561Z,100073.88
2023-04-14T23:43:25.916Z,100079.75
2023-04-14T23:45:52.521Z,100065.84
2023-04-14T23:48:18.995Z,100068.38
2023-04-14T23:51:00.953Z,100074.25
2023-04-14T23:53:31.864Z,100074.19
2023-04-14T23:55:58.537Z,100070.00
2023-04-14T23:58:26.977Z,100074.19
